38NC weather

BHH Aviation Airport
Ruffin, North Carolina, United States

Public forecast

Using degrees Fahrenheit for public forecast. Weather courtesy of forecast.io.

METAR (pilot weather report)

Report is more than 6 hours old.

Closest report is Rockingham County NC Shiloh Airport, 12.6 nm (23.3 km) W. Retrieved 2019/07/21 19:55 UTC (13 hours ago):

KSIF 211955Z AUTO SCT055 35/20 A2996 RMK AO2 T03510198 PWINO

TAF (pilot weather forecast)

Closest forecast is Danville Regional Airport, 13.8 nm (25.6 km) ENE. Retrieved 2019/07/22 06:04 UTC (3 hours ago):

TAF KDAN 220602Z 2206/2306 21005KT P6SM FEW060 SCT200 FM221700 24010G18KT P6SM VCSH SCT060 FM222200 25009G17KT 6SM SHRA VCTS BKN040CB FM230300 23003KT P6SM BKN080 OVC250